Time;durP1;ratioP1;P1;durP2;ratioP2;P2;SDS_P1;SDS_P2;PMS_P1;PMS_P2;Temp;Humidity;BMP_temperature;BMP_pressure;BME280_temperature;BME280_humidity;BME280_pressure;Samples;Min_cycle;Max_cycle;Signal;HPM_P1;HPM_P2
2023/06/20 00:00:06;;;;;;;29.30;19.10;;;18.70;99.90;;;;;;5034093;28;20039;-71
2023/06/20 00:02:32;;;;;;;28.00;19.75;;;18.70;99.90;;;;;;5051362;28;20022;-70
2023/06/20 00:05:00;;;;;;;33.88;21.63;;;18.70;99.90;;;;;;5053751;28;20027;-70
2023/06/20 00:07:25;;;;;;;36.30;22.20;;;18.60;99.90;;;;;;5055346;28;20021;-71
2023/06/20 00:09:51;;;;;;;33.97;23.83;;;18.60;99.90;;;;;;5055875;28;20104;-70
2023/06/20 00:12:16;;;;;;;38.45;23.40;;;18.60;99.90;;;;;;5037099;28;20021;-72
2023/06/20 00:14:42;;;;;;;33.95;23.55;;;18.60;99.90;;;;;;5055804;28;20301;-71
2023/06/20 00:17:07;;;;;;;37.95;24.95;;;18.60;99.90;;;;;;5055268;28;20042;-70
2023/06/20 00:19:33;;;;;;;38.83;24.48;;;18.50;99.90;;;;;;5055090;28;20388;-72
2023/06/20 00:22:02;;;;;;;39.17;24.65;;;18.50;99.90;;;;;;5037395;28;20047;-71
2023/06/20 00:24:28;;;;;;;42.58;25.15;;;18.50;99.90;;;;;;5055073;28;20492;-71
2023/06/20 00:26:56;;;;;;;39.17;25.80;;;18.40;99.90;;;;;;5054948;28;20017;-73
2023/06/20 00:29:21;;;;;;;37.75;24.55;;;18.50;99.90;;;;;;5055073;28;20013;-72
2023/06/20 00:31:47;;;;;;;41.30;26.58;;;18.40;99.90;;;;;;5055025;28;20049;-71
2023/06/20 00:34:12;;;;;;;38.72;26.77;;;18.40;99.90;;;;;;5055148;28;20691;-71
2023/06/20 00:36:38;;;;;;;44.17;27.00;;;18.30;99.90;;;;;;5037109;28;20029;-71
2023/06/20 00:39:03;;;;;;;41.22;27.60;;;18.30;99.90;;;;;;5036477;28;20021;-71
2023/06/20 00:41:31;;;;;;;40.25;27.40;;;18.30;99.90;;;;;;5055062;28;20029;-71
2023/06/20 00:44:02;;;;;;;48.10;28.65;;;18.30;99.90;;;;;;5036523;28;20025;-71
2023/06/20 00:46:40;;;;;;;41.65;27.95;;;18.30;99.90;;;;;;5054294;28;20036;-72
2023/06/20 00:49:08;;;;;;;48.03;30.75;;;18.20;99.90;;;;;;5055198;28;20536;-71
2023/06/20 00:51:37;;;;;;;48.95;31.55;;;18.20;99.90;;;;;;5054562;28;20026;-70
2023/06/20 00:54:03;;;;;;;44.75;29.55;;;18.20;99.90;;;;;;5036464;28;20068;-71
2023/06/20 00:56:29;;;;;;;46.03;29.55;;;18.30;99.90;;;;;;5054905;28;20041;-72
2023/06/20 00:58:55;;;;;;;50.42;31.15;;;18.20;99.90;;;;;;5037007;28;20025;-71
2023/06/20 01:01:21;;;;;;;47.83;29.48;;;18.20;99.90;;;;;;5054798;28;20028;-72
2023/06/20 01:03:49;;;;;;;50.78;31.85;;;18.20;99.90;;;;;;5036596;28;20021;-72
2023/06/20 01:06:43;;;;;;;46.78;31.05;;;18.10;99.90;;;;;;5054350;28;20063;-71
2023/06/20 01:09:44;;;;;;;44.75;29.88;;;18.10;99.90;;;;;;5054815;28;20435;-70
2023/06/20 01:12:25;;;;;;;44.53;30.08;;;18.00;99.90;;;;;;5036181;28;20033;-71
2023/06/20 01:15:00;;;;;;;48.83;30.75;;;18.00;99.90;;;;;;5054451;28;20028;-70
2023/06/20 01:17:40;;;;;;;47.10;30.45;;;17.90;99.90;;;;;;5052882;28;20029;-71
2023/06/20 01:20:24;;;;;;;43.95;29.27;;;17.80;99.90;;;;;;5053858;28;20602;-71
2023/06/20 01:23:03;;;;;;;46.38;28.60;;;17.80;99.90;;;;;;5036760;28;20024;-70
2023/06/20 01:26:05;;;;;;;44.20;29.67;;;17.80;99.90;;;;;;5054246;28;20074;-71
2023/06/20 01:28:54;;;;;;;39.80;27.23;;;17.80;99.90;;;;;;5054566;28;20029;-71
2023/06/20 01:31:33;;;;;;;46.33;28.30;;;17.80;99.90;;;;;;5053336;28;20087;-72
2023/06/20 01:34:08;;;;;;;44.25;28.38;;;17.80;99.90;;;;;;5052998;28;20056;-71
2023/06/20 01:36:42;;;;;;;40.35;25.58;;;17.80;99.90;;;;;;5053893;28;20033;-71
2023/06/20 01:39:12;;;;;;;;;;;17.80;99.90;;;;;;5036547;28;20500;-71
2023/06/20 01:41:41;;;;;;;40.80;26.35;;;17.80;99.90;;;;;;5053320;28;19916;-71
2023/06/20 01:44:10;;;;;;;42.78;27.90;;;17.80;99.90;;;;;;5035805;28;20025;-70
2023/06/20 01:46:36;;;;;;;41.22;25.83;;;17.70;99.90;;;;;;5053360;28;20030;-70
2023/06/20 01:49:03;;;;;;;38.10;27.73;;;17.70;99.90;;;;;;5053637;28;20037;-71
2023/06/20 01:51:30;;;;;;;42.22;27.45;;;17.70;99.90;;;;;;5035150;28;20022;-70
2023/06/20 01:53:57;;;;;;;46.20;27.80;;;17.80;99.90;;;;;;5035135;28;20025;-70
2023/06/20 01:56:26;;;;;;;40.05;28.80;;;17.70;99.90;;;;;;5053535;28;20033;-71
2023/06/20 01:58:53;;;;;;;43.72;27.70;;;17.70;99.90;;;;;;5035643;28;20018;-72
2023/06/20 02:01:20;;;;;;;41.15;28.92;;;17.70;99.90;;;;;;5053276;28;20021;-73
2023/06/20 02:03:47;;;;;;;42.63;29.42;;;17.80;99.90;;;;;;5053733;28;20025;-72
2023/06/20 02:06:15;;;;;;;46.97;29.65;;;17.60;99.90;;;;;;5053312;28;20024;-70
2023/06/20 02:08:42;;;;;;;43.03;29.73;;;17.60;99.90;;;;;;5053636;28;20029;-70
2023/06/20 02:11:09;;;;;;;47.30;31.27;;;17.60;99.90;;;;;;5035801;28;20025;-71
2023/06/20 02:13:36;;;;;;;42.72;28.40;;;17.60;99.90;;;;;;5053361;28;20044;-71
2023/06/20 02:16:05;;;;;;;44.05;29.08;;;17.50;99.90;;;;;;5052896;28;20031;-71
2023/06/20 02:18:31;;;;;;;47.83;31.77;;;17.50;99.90;;;;;;5053281;28;20025;-71
2023/06/20 02:21:06;;;;;;;47.60;31.00;;;17.50;99.90;;;;;;5035194;28;20035;-71
2023/06/20 02:23:34;;;;;;;44.17;29.70;;;17.40;99.90;;;;;;5053330;28;20036;-70
2023/06/20 02:26:09;;;;;;;45.35;29.40;;;17.50;99.90;;;;;;5052526;28;20095;-70
2023/06/20 02:28:39;;;;;;;43.78;29.63;;;17.40;99.90;;;;;;5052758;28;20028;-69
2023/06/20 02:31:08;;;;;;;47.53;32.05;;;17.40;99.90;;;;;;5052303;28;20049;-71
2023/06/20 02:33:35;;;;;;;46.83;30.48;;;17.40;99.90;;;;;;5053261;28;20017;-71
2023/06/20 02:36:02;;;;;;;46.58;29.73;;;17.40;99.90;;;;;;5052506;28;20048;-70
2023/06/20 02:38:28;;;;;;;43.40;29.75;;;17.40;99.90;;;;;;5052216;28;20021;-71
2023/06/20 02:40:54;;;;;;;46.65;30.40;;;17.40;99.90;;;;;;5053240;28;20028;-71
2023/06/20 02:43:19;;;;;;;47.80;29.38;;;17.40;99.90;;;;;;5053100;28;20023;-70
2023/06/20 02:45:50;;;;;;;48.40;29.10;;;17.40;99.90;;;;;;5052445;28;20099;-70
2023/06/20 02:48:42;;;;;;;46.08;29.23;;;17.40;99.90;;;;;;5052748;28;20013;-73
2023/06/20 02:51:23;;;;;;;46.78;29.40;;;17.40;99.90;;;;;;5052176;28;20033;-70
2023/06/20 02:54:03;;;;;;;42.83;28.70;;;17.30;99.90;;;;;;5052627;28;20022;-71
2023/06/20 02:56:31;;;;;;;42.60;27.17;;;17.30;99.90;;;;;;5052776;28;20033;-72
2023/06/20 02:59:00;;;;;;;45.38;28.98;;;17.40;99.90;;;;;;5052425;28;20021;-70
2023/06/20 03:01:30;;;;;;;46.03;29.02;;;17.30;99.90;;;;;;5034409;28;20021;-71
2023/06/20 03:03:58;;;;;;;46.75;30.98;;;17.30;99.90;;;;;;5052204;28;20033;-70
2023/06/20 03:06:27;;;;;;;44.80;29.55;;;17.40;99.90;;;;;;5052543;28;20021;-73
2023/06/20 03:08:55;;;;;;;42.85;29.30;;;17.30;99.90;;;;;;5052200;28;20381;-71
2023/06/20 03:11:21;;;;;;;47.47;29.25;;;17.30;99.90;;;;;;5033600;28;20072;-71
2023/06/20 03:13:47;;;;;;;46.28;30.17;;;17.30;99.90;;;;;;5052418;28;20404;-71
2023/06/20 03:16:13;;;;;;;44.58;27.88;;;17.30;99.90;;;;;;5052294;28;20031;-71
2023/06/20 03:18:39;;;;;;;45.15;27.85;;;17.30;99.90;;;;;;5052537;28;20029;-70
2023/06/20 03:21:05;;;;;;;43.92;28.58;;;17.30;99.90;;;;;;5034369;28;20051;-70
2023/06/20 03:23:31;;;;;;;39.70;26.85;;;17.30;99.90;;;;;;5034866;28;20084;-71
2023/06/20 03:25:57;;;;;;;44.95;28.00;;;17.30;99.90;;;;;;5051781;28;20061;-70
2023/06/20 03:28:23;;;;;;;41.83;28.58;;;17.30;99.90;;;;;;5034496;28;20047;-71
2023/06/20 03:30:49;;;;;;;43.97;28.05;;;17.30;99.90;;;;;;5034335;28;20037;-71
2023/06/20 03:33:14;;;;;;;40.88;28.38;;;17.30;99.90;;;;;;5034235;28;20030;-71
2023/06/20 03:35:40;;;;;;;41.17;27.33;;;17.30;99.90;;;;;;5051969;28;20052;-71
2023/06/20 03:38:05;;;;;;;43.20;28.88;;;17.20;99.90;;;;;;5051783;28;20120;-71
2023/06/20 03:40:31;;;;;;;41.78;27.48;;;17.20;99.90;;;;;;5037345;28;20037;-71
2023/06/20 03:42:57;;;;;;;41.83;25.90;;;17.30;99.90;;;;;;5056415;28;20531;-70
2023/06/20 03:45:22;;;;;;;40.03;26.45;;;17.20;99.90;;;;;;5038147;28;21211;-70
2023/06/20 03:47:48;;;;;;;41.22;26.45;;;17.30;99.90;;;;;;5057447;28;20017;-71
2023/06/20 03:50:14;;;;;;;40.08;26.08;;;17.30;99.90;;;;;;5056542;28;20029;-71
2023/06/20 03:52:40;;;;;;;43.85;24.75;;;17.30;99.90;;;;;;5055972;28;20017;-72
2023/06/20 03:55:06;;;;;;;43.47;26.65;;;17.30;99.90;;;;;;5055740;28;20021;-70
2023/06/20 03:57:31;;;;;;;40.58;23.83;;;17.30;99.90;;;;;;5056395;28;20083;-70
2023/06/20 03:59:57;;;;;;;39.50;26.38;;;17.30;99.90;;;;;;5055393;28;20029;-71
2023/06/20 04:02:22;;;;;;;38.30;25.17;;;17.30;99.90;;;;;;5038287;28;20039;-71
2023/06/20 04:04:51;;;;;;;34.50;24.08;;;17.40;99.90;;;;;;5053632;28;20036;-71
2023/06/20 04:07:18;;;;;;;39.85;26.05;;;17.30;99.90;;;;;;5055285;28;20048;-69
2023/06/20 04:09:45;;;;;;;40.00;25.52;;;17.40;99.90;;;;;;5054044;28;20021;-71
2023/06/20 04:12:10;;;;;;;38.50;25.00;;;17.40;99.90;;;;;;5055311;28;20044;-70
2023/06/20 04:14:36;;;;;;;35.05;24.65;;;17.30;99.90;;;;;;5055284;28;20034;-70
2023/06/20 04:17:02;;;;;;;38.20;25.17;;;17.40;99.90;;;;;;5055436;28;20029;-69
2023/06/20 04:19:27;;;;;;;41.17;25.02;;;17.40;99.90;;;;;;5055061;28;20021;-71
2023/06/20 04:21:53;;;;;;;37.63;23.92;;;17.40;99.90;;;;;;5054732;28;20059;-71
2023/06/20 04:24:19;;;;;;;40.00;25.73;;;17.40;99.90;;;;;;5055480;28;20037;-72
2023/06/20 04:26:44;;;;;;;31.60;23.20;;;17.50;99.90;;;;;;5038315;28;20396;-70
2023/06/20 04:29:10;;;;;;;37.92;23.80;;;17.50;99.90;;;;;;5050306;28;20048;-70
2023/06/20 04:31:36;;;;;;;38.65;24.73;;;17.50;99.90;;;;;;5050278;28;20045;-69
2023/06/20 04:34:01;;;;;;;35.03;22.73;;;17.50;99.90;;;;;;5055195;28;20024;-69
2023/06/20 04:36:28;;;;;;;35.17;23.65;;;17.60;99.90;;;;;;5055026;28;20033;-71
2023/06/20 04:38:54;;;;;;;36.60;23.40;;;17.60;99.90;;;;;;5037619;28;20063;-69
2023/06/20 04:41:20;;;;;;;39.10;23.88;;;17.70;99.90;;;;;;5055559;28;20556;-71
2023/06/20 04:43:45;;;;;;;36.47;24.50;;;17.70;99.90;;;;;;5055542;28;20048;-70
2023/06/20 04:46:15;;;;;;;32.28;22.52;;;17.70;99.90;;;;;;5037409;28;20025;-68
2023/06/20 04:48:41;;;;;;;35.03;22.25;;;17.70;99.90;;;;;;5054715;28;20049;-71
2023/06/20 04:51:08;;;;;;;35.08;23.95;;;17.80;99.90;;;;;;5054276;28;20040;-71
2023/06/20 04:53:35;;;;;;;36.10;24.45;;;17.90;99.90;;;;;;5054685;28;20100;-70
2023/06/20 04:56:01;;;;;;;37.20;23.67;;;17.90;99.90;;;;;;5054884;28;20029;-69
2023/06/20 04:58:28;;;;;;;40.25;24.00;;;17.90;99.90;;;;;;5055074;28;20029;-69
2023/06/20 05:00:55;;;;;;;37.78;23.75;;;17.90;99.90;;;;;;5054759;28;20018;-70
2023/06/20 05:03:21;;;;;;;36.35;22.52;;;18.00;99.90;;;;;;5054120;28;20026;-68
2023/06/20 05:05:47;;;;;;;32.78;21.40;;;18.10;99.90;;;;;;5036832;28;20055;-69
2023/06/20 05:08:12;;;;;;;32.22;20.98;;;18.10;99.90;;;;;;5055075;28;20029;-69
2023/06/20 05:10:38;;;;;;;31.90;20.70;;;18.10;99.90;;;;;;5036459;28;20029;-69
2023/06/20 05:13:03;;;;;;;31.95;20.25;;;18.20;99.90;;;;;;5054292;28;20027;-68
2023/06/20 05:15:29;;;;;;;32.17;20.48;;;18.30;99.90;;;;;;5054736;28;20028;-70
2023/06/20 05:17:54;;;;;;;30.83;19.88;;;18.30;99.90;;;;;;5054235;28;20042;-69
2023/06/20 05:20:20;;;;;;;31.45;21.15;;;18.40;99.90;;;;;;5054802;28;20033;-71
2023/06/20 05:22:46;;;;;;;30.95;21.67;;;18.40;99.90;;;;;;5054986;28;20033;-70
2023/06/20 05:25:12;;;;;;;31.92;20.95;;;18.50;99.90;;;;;;5052396;28;20017;-69
2023/06/20 05:27:38;;;;;;;33.22;22.98;;;18.70;99.90;;;;;;5053925;28;20028;-70
2023/06/20 05:30:05;;;;;;;34.10;23.10;;;18.60;99.90;;;;;;5054080;28;20039;-72
2023/06/20 05:32:30;;;;;;;34.25;24.05;;;18.70;99.90;;;;;;5036282;28;20099;-71
2023/06/20 05:34:56;;;;;;;34.92;23.10;;;18.70;99.90;;;;;;5035745;28;20458;-70
2023/06/20 05:37:22;;;;;;;38.80;24.23;;;18.80;99.90;;;;;;5036777;28;20100;-71
2023/06/20 05:39:48;;;;;;;30.85;21.63;;;18.90;99.90;;;;;;5054010;28;20037;-70
2023/06/20 05:42:13;;;;;;;29.90;21.92;;;18.90;99.90;;;;;;5035984;28;20044;-72
2023/06/20 05:44:39;;;;;;;35.22;22.55;;;19.00;99.90;;;;;;5053759;28;20557;-71
2023/06/20 05:47:05;;;;;;;33.22;23.08;;;19.00;99.90;;;;;;5054019;28;20029;-71
2023/06/20 05:49:31;;;;;;;31.83;22.25;;;19.10;99.90;;;;;;5053840;28;20029;-72
2023/06/20 05:51:59;;;;;;;28.70;21.52;;;19.00;99.90;;;;;;5053619;28;20021;-71
2023/06/20 05:54:25;;;;;;;31.25;22.98;;;19.10;99.90;;;;;;5053134;28;20017;-73
2023/06/20 05:56:52;;;;;;;35.00;22.88;;;19.20;99.90;;;;;;5053897;28;20045;-72
2023/06/20 05:59:18;;;;;;;32.63;21.23;;;19.20;99.90;;;;;;5052408;28;20076;-71
2023/06/20 06:01:44;;;;;;;31.70;22.90;;;19.20;99.90;;;;;;5052719;28;20052;-71
2023/06/20 06:04:10;;;;;;;32.10;22.85;;;19.30;99.90;;;;;;5053641;28;20047;-72
2023/06/20 06:06:36;;;;;;;34.97;22.95;;;19.30;99.90;;;;;;5052950;28;20097;-70
2023/06/20 06:09:03;;;;;;;35.63;24.63;;;19.40;99.90;;;;;;5053392;28;20048;-71
2023/06/20 06:11:29;;;;;;;31.85;23.23;;;19.50;99.90;;;;;;5053407;28;20089;-72
2023/06/20 06:13:54;;;;;;;31.08;23.45;;;19.50;99.90;;;;;;5052455;28;20058;-71
2023/06/20 06:16:20;;;;;;;36.20;23.92;;;19.60;99.90;;;;;;5053778;28;20029;-71
2023/06/20 06:18:45;;;;;;;35.17;22.92;;;19.60;99.90;;;;;;5036092;28;20021;-72
2023/06/20 06:21:11;;;;;;;33.30;23.15;;;19.70;99.90;;;;;;5053252;28;20017;-71
2023/06/20 06:23:37;;;;;;;28.73;21.75;;;19.70;99.90;;;;;;5053181;28;20504;-70
2023/06/20 06:26:04;;;;;;;31.80;22.13;;;19.80;99.90;;;;;;5035001;28;20032;-70
2023/06/20 06:28:30;;;;;;;32.88;22.83;;;19.90;99.90;;;;;;5035125;28;20017;-71
2023/06/20 06:30:59;;;;;;;34.15;22.17;;;19.90;99.90;;;;;;5052941;28;20044;-71
2023/06/20 06:33:24;;;;;;;27.83;20.23;;;20.00;99.90;;;;;;5053248;28;20021;-72
2023/06/20 06:35:50;;;;;;;30.17;20.98;;;20.10;99.90;;;;;;5052368;28;20030;-70
2023/06/20 06:38:16;;;;;;;27.63;19.38;;;20.20;99.90;;;;;;5053384;28;20059;-70
2023/06/20 06:40:43;;;;;;;28.67;21.80;;;20.30;99.90;;;;;;5035540;28;20520;-72
2023/06/20 06:43:09;;;;;;;29.08;22.20;;;20.50;99.90;;;;;;5052483;28;20051;-71
2023/06/20 06:45:37;;;;;;;28.40;21.10;;;20.50;99.90;;;;;;5035229;28;20021;-71
2023/06/20 06:48:02;;;;;;;29.67;20.52;;;20.50;99.90;;;;;;5052197;28;20032;-72
2023/06/20 06:50:28;;;;;;;28.13;19.80;;;20.50;99.90;;;;;;5052762;28;20025;-71
2023/06/20 06:52:54;;;;;;;27.55;19.77;;;20.70;99.90;;;;;;5034932;28;20030;-72
2023/06/20 06:55:19;;;;;;;24.77;17.33;;;20.70;99.90;;;;;;5051800;28;20085;-71
2023/06/20 06:57:45;;;;;;;24.63;16.92;;;20.70;99.90;;;;;;5052537;28;20040;-71
2023/06/20 07:00:14;;;;;;;22.58;15.40;;;20.90;99.90;;;;;;5052858;28;20386;-71
2023/06/20 07:02:40;;;;;;;23.40;13.75;;;21.00;99.90;;;;;;5052056;28;20017;-70
2023/06/20 07:05:06;;;;;;;18.85;13.05;;;21.20;99.90;;;;;;5034688;28;20034;-71
2023/06/20 07:07:32;;;;;;;14.68;11.88;;;21.40;99.90;;;;;;5052515;28;20044;-72
2023/06/20 07:09:58;;;;;;;20.38;12.88;;;21.60;99.90;;;;;;5052404;28;20056;-70
2023/06/20 07:12:23;;;;;;;19.75;12.55;;;21.70;99.90;;;;;;5053039;28;20033;-71
2023/06/20 07:14:50;;;;;;;19.02;12.95;;;21.80;99.90;;;;;;5052592;28;20097;-72
2023/06/20 07:17:16;;;;;;;20.42;12.90;;;21.80;99.90;;;;;;5051728;28;20029;-72
2023/06/20 07:19:43;;;;;;;17.75;13.30;;;21.80;99.90;;;;;;5052210;28;20495;-72
2023/06/20 07:22:09;;;;;;;16.90;12.65;;;21.80;99.90;;;;;;5034405;28;20037;-72
2023/06/20 07:24:34;;;;;;;14.25;12.13;;;21.80;99.90;;;;;;5053209;28;20030;-71
2023/06/20 07:27:00;;;;;;;18.75;13.30;;;21.80;99.90;;;;;;5034183;28;20052;-71
2023/06/20 07:29:25;;;;;;;18.92;12.25;;;21.90;99.90;;;;;;5052053;28;20113;-72
2023/06/20 07:31:51;;;;;;;18.77;13.65;;;21.80;99.90;;;;;;5051624;28;20052;-72
2023/06/20 07:34:16;;;;;;;17.73;13.02;;;21.80;99.90;;;;;;5035060;28;20025;-72
2023/06/20 07:36:42;;;;;;;19.17;13.13;;;21.90;99.90;;;;;;5052416;28;20045;-71
2023/06/20 07:39:08;;;;;;;17.85;13.57;;;21.90;99.90;;;;;;5051863;28;20029;-71
2023/06/20 07:41:33;;;;;;;22.65;14.07;;;21.90;99.90;;;;;;5034143;28;20487;-71
2023/06/20 07:43:59;;;;;;;21.70;13.35;;;21.90;99.90;;;;;;5051560;28;20040;-70
2023/06/20 07:46:25;;;;;;;17.80;12.88;;;21.90;99.90;;;;;;5052140;28;20043;-72
2023/06/20 07:48:51;;;;;;;20.30;13.43;;;22.00;99.90;;;;;;5052671;28;20018;-73
2023/06/20 07:51:16;;;;;;;16.05;13.52;;;22.00;99.90;;;;;;5052169;28;20085;-70
2023/06/20 07:53:42;;;;;;;16.90;12.82;;;22.00;99.90;;;;;;5052014;28;20025;-72
2023/06/20 07:56:08;;;;;;;26.83;13.45;;;22.10;99.90;;;;;;5034113;28;20029;-72
2023/06/20 07:58:33;;;;;;;20.08;13.32;;;22.20;99.90;;;;;;5033611;28;20029;-72
2023/06/20 08:01:00;;;;;;;19.58;13.25;;;22.20;99.90;;;;;;5034138;28;20037;-72
2023/06/20 08:03:26;;;;;;;23.20;14.13;;;22.30;99.90;;;;;;5051306;28;20424;-75
2023/06/20 08:05:52;;;;;;;19.25;13.93;;;22.40;99.90;;;;;;5050147;28;20106;-73
2023/06/20 08:08:18;;;;;;;20.80;14.25;;;22.40;99.90;;;;;;5032465;28;20029;-74
2023/06/20 08:10:44;;;;;;;17.48;13.52;;;22.50;99.90;;;;;;5051166;28;20049;-71
2023/06/20 08:13:09;;;;;;;16.77;13.35;;;22.60;99.90;;;;;;5051014;28;20029;-72
2023/06/20 08:15:35;;;;;;;16.48;12.88;;;22.50;99.90;;;;;;5050924;28;20040;-71
2023/06/20 08:18:00;;;;;;;18.33;13.77;;;22.60;99.90;;;;;;5051335;28;20040;-72
2023/06/20 08:20:26;;;;;;;21.42;13.85;;;22.60;99.90;;;;;;5030451;28;20051;-71
2023/06/20 08:22:52;;;;;;;19.58;13.95;;;22.60;99.90;;;;;;5051932;28;20071;-73
2023/06/20 08:25:17;;;;;;;23.63;14.95;;;22.60;99.90;;;;;;5049935;28;20024;-73
2023/06/20 08:27:43;;;;;;;22.55;14.60;;;22.50;99.90;;;;;;5037045;28;20037;-72
2023/06/20 08:30:09;;;;;;;21.58;14.32;;;22.50;99.90;;;;;;5055395;28;20025;-72
2023/06/20 08:32:36;;;;;;;20.02;15.45;;;22.40;99.90;;;;;;5055466;28;20047;-73
2023/06/20 08:35:02;;;;;;;19.98;15.57;;;22.40;99.90;;;;;;5055971;28;20118;-71
2023/06/20 08:37:28;;;;;;;22.20;15.73;;;22.30;99.90;;;;;;5037294;28;20072;-72
2023/06/20 08:39:53;;;;;;;24.42;16.05;;;22.30;99.90;;;;;;5052743;28;20029;-71
2023/06/20 08:42:19;;;;;;;24.75;16.10;;;22.30;99.90;;;;;;5036938;28;20025;-72
2023/06/20 08:44:45;;;;;;;22.77;15.50;;;22.30;99.90;;;;;;5055396;28;20021;-72
2023/06/20 08:47:11;;;;;;;27.40;16.25;;;22.30;99.90;;;;;;5053033;28;20033;-71
2023/06/20 08:49:36;;;;;;;21.60;14.82;;;22.30;99.90;;;;;;5053726;28;20021;-70
2023/06/20 08:52:07;;;;;;;21.98;17.20;;;22.20;99.90;;;;;;5053049;28;20036;-71
2023/06/20 08:54:36;;;;;;;22.40;16.40;;;22.20;99.90;;;;;;5052970;28;20056;-70
2023/06/20 08:57:02;;;;;;;21.05;15.68;;;22.20;99.90;;;;;;5035960;28;20049;-71
2023/06/20 08:59:28;;;;;;;22.02;16.02;;;22.20;99.90;;;;;;5054869;28;20029;-71
2023/06/20 09:01:53;;;;;;;23.67;16.50;;;22.20;99.90;;;;;;5054439;28;20462;-72
2023/06/20 09:04:19;;;;;;;21.98;15.88;;;22.20;99.90;;;;;;5054976;28;20029;-71
2023/06/20 09:06:47;;;;;;;19.33;16.60;;;22.20;99.90;;;;;;5055097;28;21430;-72
2023/06/20 09:09:17;;;;;;;24.60;16.98;;;22.20;99.90;;;;;;5054395;28;20538;-72
2023/06/20 09:11:58;;;;;;;26.48;16.77;;;22.30;99.90;;;;;;5054673;28;20583;-71
2023/06/20 09:14:29;;;;;;;22.25;15.93;;;22.30;99.90;;;;;;5054900;28;20021;-71
2023/06/20 09:16:55;;;;;;;21.23;16.08;;;22.40;99.90;;;;;;5054703;28;20048;-73
2023/06/20 09:19:22;;;;;;;22.17;16.17;;;22.50;99.90;;;;;;5054589;28;20025;-73
2023/06/20 09:21:49;;;;;;;21.98;15.55;;;22.60;99.90;;;;;;5054226;28;20093;-71
2023/06/20 09:24:21;;;;;;;25.00;15.68;;;22.60;99.90;;;;;;5054368;28;20421;-71
2023/06/20 09:26:50;;;;;;;24.02;15.90;;;22.70;99.90;;;;;;5035857;28;20037;-72
2023/06/20 09:29:17;;;;;;;20.25;15.15;;;22.80;99.90;;;;;;5037387;28;20025;-73
2023/06/20 09:31:48;;;;;;;22.45;15.95;;;22.80;99.90;;;;;;5054072;28;20041;-73
2023/06/20 09:34:18;;;;;;;20.92;16.15;;;22.80;99.90;;;;;;5053641;28;20028;-71
2023/06/20 09:36:47;;;;;;;25.10;16.23;;;22.90;99.90;;;;;;5052779;28;20096;-71
2023/06/20 09:39:20;;;;;;;18.70;15.07;;;22.90;99.90;;;;;;5035869;28;20017;-74
2023/06/20 09:41:46;;;;;;;21.85;15.57;;;22.80;99.90;;;;;;5054070;28;20014;-74
2023/06/20 09:44:13;;;;;;;19.50;14.70;;;22.80;99.90;;;;;;5035486;28;20029;-72
2023/06/20 09:46:39;;;;;;;21.65;14.48;;;22.80;99.90;;;;;;5053296;28;20029;-71
2023/06/20 09:49:05;;;;;;;17.50;14.65;;;22.80;99.90;;;;;;5053728;28;20028;-72
2023/06/20 09:51:33;;;;;;;17.83;14.85;;;22.70;99.90;;;;;;5035500;28;20021;-70
2023/06/20 09:54:07;;;;;;;20.45;14.80;;;22.70;99.90;;;;;;5054271;28;20033;-71
2023/06/20 09:56:43;;;;;;;29.02;15.02;;;22.70;99.90;;;;;;5053291;28;20029;-70
2023/06/20 09:59:11;;;;;;;18.30;13.93;;;22.70;99.90;;;;;;5035358;28;20073;-72
2023/06/20 10:01:38;;;;;;;21.33;14.52;;;22.70;99.90;;;;;;5053573;28;20423;-70
2023/06/20 10:04:05;;;;;;;20.65;13.75;;;22.70;99.90;;;;;;5053757;28;20105;-71
2023/06/20 10:06:31;;;;;;;17.52;14.27;;;22.70;99.90;;;;;;5053585;28;20087;-72
2023/06/20 10:08:58;;;;;;;19.33;14.23;;;22.70;99.90;;;;;;5036667;28;20025;-74
2023/06/20 10:11:24;;;;;;;16.05;13.20;;;22.80;99.90;;;;;;5052823;28;20052;-72
2023/06/20 10:13:51;;;;;;;18.48;13.48;;;22.80;99.90;;;;;;5053643;28;20089;-71
2023/06/20 10:16:16;;;;;;;18.70;14.27;;;22.80;99.90;;;;;;5035554;28;20036;-73
2023/06/20 10:18:43;;;;;;;21.75;13.55;;;22.80;99.90;;;;;;5053390;28;20029;-71
2023/06/20 10:21:13;;;;;;;19.42;13.15;;;22.80;99.90;;;;;;5035606;28;20034;-72
2023/06/20 10:23:39;;;;;;;18.20;13.13;;;22.90;99.90;;;;;;5052630;28;20025;-72
2023/06/20 10:26:07;;;;;;;17.02;13.02;;;23.00;99.90;;;;;;5051898;28;20026;-71
2023/06/20 10:28:35;;;;;;;16.00;12.20;;;23.00;99.90;;;;;;5053692;28;20109;-72
2023/06/20 10:31:01;;;;;;;16.33;13.18;;;23.10;99.90;;;;;;5033552;28;20072;-73
2023/06/20 10:33:34;;;;;;;15.02;12.82;;;23.20;99.90;;;;;;5053193;28;20029;-73
2023/06/20 10:36:05;;;;;;;17.38;12.98;;;23.30;99.90;;;;;;5052820;28;20077;-71
2023/06/20 10:38:33;;;;;;;16.63;12.63;;;23.40;99.90;;;;;;5034930;28;20051;-70
2023/06/20 10:41:06;;;;;;;14.40;12.90;;;23.50;99.90;;;;;;5035335;28;20112;-71
2023/06/20 10:43:48;;;;;;;16.63;12.68;;;23.70;99.90;;;;;;5052841;28;20382;-71
2023/06/20 10:46:14;;;;;;;14.77;11.95;;;23.80;99.90;;;;;;5052033;28;20029;-71
2023/06/20 10:48:39;;;;;;;15.80;11.57;;;24.00;99.90;;;;;;5052990;28;20032;-71
2023/06/20 10:51:05;;;;;;;14.95;11.88;;;24.20;99.90;;;;;;5052315;28;20181;-71
2023/06/20 10:53:32;;;;;;;14.65;11.48;;;24.50;99.90;;;;;;5052000;28;20041;-71
2023/06/20 10:55:57;;;;;;;20.35;11.93;;;24.70;99.90;;;;;;5052199;28;20023;-72
2023/06/20 10:58:23;;;;;;;14.93;12.00;;;24.90;99.90;;;;;;5052680;28;20021;-73
2023/06/20 11:00:53;;;;;;;14.45;12.60;;;25.00;99.90;;;;;;5053300;28;20392;-71
2023/06/20 11:03:20;;;;;;;15.73;12.63;;;25.00;99.90;;;;;;5052357;28;20440;-70
2023/06/20 11:05:56;;;;;;;12.93;11.27;;;25.00;99.90;;;;;;5052028;28;20025;-71
2023/06/20 11:08:25;;;;;;;14.27;12.05;;;25.00;99.90;;;;;;5034431;28;20036;-71
2023/06/20 11:10:52;;;;;;;16.25;12.68;;;24.90;99.90;;;;;;5052838;28;20025;-71
2023/06/20 11:13:17;;;;;;;14.52;12.20;;;24.90;99.90;;;;;;5052767;28;20028;-72
2023/06/20 11:15:43;;;;;;;20.30;12.85;;;24.80;99.90;;;;;;5052759;28;20022;-71
2023/06/20 11:18:09;;;;;;;17.17;12.15;;;24.80;99.90;;;;;;5051887;28;20040;-70
2023/06/20 11:20:39;;;;;;;17.52;12.65;;;24.70;99.90;;;;;;5052085;28;20045;-73
2023/06/20 11:23:08;;;;;;;15.95;12.75;;;24.70;99.90;;;;;;5052534;28;20018;-72
2023/06/20 11:25:35;;;;;;;14.20;12.27;;;24.60;99.90;;;;;;5034134;28;20018;-70
2023/06/20 11:28:06;;;;;;;14.50;11.23;;;24.60;99.90;;;;;;5051438;28;20025;-73
2023/06/20 11:30:33;;;;;;;15.50;12.05;;;24.50;99.90;;;;;;5051804;28;20042;-72
2023/06/20 11:33:07;;;;;;;13.27;11.48;;;24.50;99.90;;;;;;5051996;28;20025;-71
2023/06/20 11:35:43;;;;;;;11.55;10.35;;;24.50;99.90;;;;;;5051243;28;20029;-70
2023/06/20 11:38:14;;;;;;;11.45;10.10;;;24.50;99.90;;;;;;5052289;28;20049;-72
2023/06/20 11:40:41;;;;;;;15.23;10.90;;;24.60;99.90;;;;;;5052118;28;20060;-72
2023/06/20 11:43:06;;;;;;;13.60;10.07;;;24.60;99.90;;;;;;5034221;28;20120;-71
2023/06/20 11:45:33;;;;;;;15.25;11.25;;;24.50;99.90;;;;;;5034448;28;20429;-71
2023/06/20 11:48:09;;;;;;;12.55;10.50;;;24.50;99.90;;;;;;5033101;28;20025;-72
2023/06/20 11:50:35;;;;;;;15.82;11.20;;;24.60;99.90;;;;;;5051744;28;20092;-72
2023/06/20 11:53:03;;;;;;;12.20;10.80;;;24.70;99.90;;;;;;5051417;28;20026;-72
2023/06/20 11:55:52;;;;;;;13.02;9.98;;;24.80;99.90;;;;;;5034630;28;20145;-71
2023/06/20 11:58:18;;;;;;;12.73;10.80;;;25.00;99.90;;;;;;5034420;28;20034;-72
2023/06/20 12:00:46;;;;;;;14.27;10.73;;;25.20;99.90;;;;;;5053325;28;20095;-73
2023/06/20 12:03:15;;;;;;;13.00;11.23;;;25.50;99.90;;;;;;5055424;28;20124;-72
2023/06/20 12:05:41;;;;;;;11.95;10.63;;;25.70;99.90;;;;;;5037969;28;20025;-72
2023/06/20 12:08:06;;;;;;;12.65;10.05;;;25.90;99.90;;;;;;5055601;28;20094;-70
2023/06/20 12:10:34;;;;;;;12.65;10.70;;;25.90;99.90;;;;;;5055376;28;20025;-71
2023/06/20 12:13:04;;;;;;;11.38;10.02;;;25.90;99.90;;;;;;5037934;28;20021;-72
2023/06/20 12:15:29;;;;;;;12.55;11.13;;;25.90;99.90;;;;;;5055501;28;20078;-70
2023/06/20 12:17:55;;;;;;;11.45;10.30;;;25.90;99.90;;;;;;5037641;28;20467;-72
2023/06/20 12:20:22;;;;;;;13.95;9.60;;;25.90;99.90;;;;;;5055042;28;20029;-72
2023/06/20 12:22:48;;;;;;;13.13;10.30;;;25.80;99.90;;;;;;5055073;28;20021;-73
2023/06/20 12:25:14;;;;;;;12.23;10.25;;;25.80;99.90;;;;;;5054933;28;20025;-72
2023/06/20 12:27:40;;;;;;;12.15;9.85;;;25.80;99.90;;;;;;5037725;28;20032;-72
2023/06/20 12:30:07;;;;;;;16.27;11.48;;;25.90;99.90;;;;;;5036891;28;20029;-70